ENAT/ALF METAR and TAF weather

Enter ICAO airport designator
Station Type Date Time Source
ENAT METAR 2018/07/19 06:50 UTC NOAA

ENAT 190650Z 18008KT 150V250 CAVOK 28/11 Q1014 RMK WIND 700FT 19020KT


Station Type Date Time Source
ENAT Decoded METAR 2018/07/19 06:50 UTC NOAA

Alta Lufthavn, Norway (ENAT) 69-59N 023-22E 3M
Jul 19, 2018 - 02:50 AM EDT / 2018.07.19 0650 UTC
Wind: from the S (180 degrees) at 9 MPH (8 KT) (direction variable):0
Visibility: greater than 7 mile(s):0
Temperature: 82 F (28 C)
Dew Point: 51 F (11 C)
Relative Humidity: 34%
Pressure (altimeter): 29.94 in. Hg (1014 hPa)
ob: ENAT 190650Z 18008KT 150V250 CAVOK 28/11 Q1014 RMK WIND 700FT 19020KT
cycle: 7

Station Type Date Time Source
ENAT TAF 2008/11/30 23:00 UTC NOAA

TAF TAF ENAT 302300Z 3023/0102 22005KT 7000 -SN FEW008 BKN020
TEMPO 3023/0102 3000 -SN VV012


Example: see airport list